Time;durP1;ratioP1;P1;durP2;ratioP2;P2;SDS_P1;SDS_P2;PMS_P1;PMS_P2;Temp;Humidity;BMP_temperature;BMP_pressure;BME280_temperature;BME280_humidity;BME280_pressure;Samples;Min_cycle;Max_cycle;Signal;HPM_P1;HPM_P2
2022/10/02 00:01:41;;;;;;;15.77;3.70;;;11.40;1.00;;;;;;6280049;22;20023;-83
2022/10/02 00:04:37;;;;;;;12.55;3.42;;;11.40;9.40;;;;;;6256870;22;20023;-81
2022/10/02 00:07:40;;;;;;;12.93;3.50;;;11.40;7.10;;;;;;6278484;22;20019;-82
2022/10/02 00:10:36;;;;;;;10.55;3.03;;;11.40;99.90;;;;;;6255678;22;20019;-82
2022/10/02 00:13:51;;;;;;;11.02;2.92;;;11.40;99.90;;;;;;6257588;22;20019;-83
2022/10/02 00:16:54;;;;;;;11.52;2.70;;;11.40;94.10;;;;;;6255397;22;20024;-83
2022/10/02 00:19:41;;;;;;;14.65;2.83;;;11.40;99.90;;;;;;6280233;22;20030;-83
2022/10/02 00:22:43;;;;;;;10.75;2.72;;;11.40;99.90;;;;;;6277667;22;20026;-84
2022/10/02 00:25:44;;;;;;;9.43;2.90;;;11.40;99.90;;;;;;6279048;22;20023;-84
2022/10/02 00:29:13;;;;;;;9.63;2.78;;;11.40;99.90;;;;;;6276466;22;20325;-83
2022/10/02 00:32:18;;;;;;;9.18;2.85;;;11.40;83.60;;;;;;6277623;22;20094;-82
2022/10/02 00:35:27;;;;;;;12.02;3.75;;;11.40;1.00;;;;;;6278028;22;20028;-83
2022/10/02 00:38:33;;;;;;;12.70;3.72;;;11.40;1.00;;;;;;6278152;22;20055;-83
2022/10/02 00:41:42;;;;;;;13.48;2.75;;;11.40;99.90;;;;;;6277203;22;20023;-83
2022/10/02 00:44:44;;;;;;;7.30;2.65;;;11.40;93.40;;;;;;6278554;22;20031;-83
2022/10/02 00:47:50;;;;;;;8.15;2.60;;;11.50;1.00;;;;;;6278236;22;20387;-83
2022/10/02 00:50:43;;;;;;;9.60;3.40;;;11.50;99.90;;;;;;6257839;22;20034;-88
2022/10/02 00:53:36;;;;;;;10.43;3.10;;;11.50;99.90;;;;;;6278867;22;20030;-84
2022/10/02 00:56:57;;;;;;;6.55;2.53;;;11.50;99.90;;;;;;6277528;22;20020;-86
2022/10/02 00:59:54;;;;;;;10.57;3.20;;;11.60;1.00;;;;;;6254212;22;20399;-85
2022/10/02 01:02:56;;;;;;;9.38;3.17;;;11.60;99.90;;;;;;6277073;22;20415;-86
2022/10/02 01:05:44;;;;;;;10.95;2.67;;;11.60;1.00;;;;;;6279534;22;20419;-84
2022/10/02 01:08:31;;;;;;;9.05;2.72;;;11.60;1.00;;;;;;6256811;22;20020;-83
2022/10/02 01:11:21;;;;;;;6.95;2.67;;;11.60;1.00;;;;;;6256589;22;20019;-85
2022/10/02 01:14:11;;;;;;;13.30;2.78;;;11.60;56.90;;;;;;6277513;22;20019;-85
2022/10/02 01:16:58;;;;;;;13.88;2.55;;;11.60;1.00;;;;;;6275476;22;20030;-84
2022/10/02 01:19:45;;;;;;;10.80;3.17;;;11.60;1.00;;;;;;6279049;22;20027;-85
2022/10/02 01:23:06;;;;;;;14.20;2.72;;;11.60;1.00;;;;;;6276827;22;20418;-84
2022/10/02 01:25:54;;;;;;;9.82;3.25;;;11.60;51.20;;;;;;6273106;22;20031;-84
2022/10/02 01:28:41;;;;;;;12.55;3.40;;;11.60;99.90;;;;;;6275537;22;20034;-85
2022/10/02 01:31:29;;;;;;;12.70;2.40;;;11.60;1.00;;;;;;6276864;22;20434;-86
2022/10/02 01:34:19;;;;;;;8.15;2.17;;;11.70;1.00;;;;;;6276984;22;20023;-85
2022/10/02 01:37:07;;;;;;;8.32;2.33;;;11.70;1.00;;;;;;6280392;22;20034;-84
2022/10/02 01:40:04;;;;;;;15.43;2.88;;;11.70;65.80;;;;;;6280059;22;20049;-84
2022/10/02 01:42:52;;;;;;;15.43;3.33;;;11.70;1.00;;;;;;6277823;22;20031;-83
2022/10/02 01:46:01;;;;;;;9.23;2.20;;;11.60;1.00;;;;;;6280155;22;20304;-84
2022/10/02 01:49:15;;;;;;;13.98;3.10;;;11.70;99.90;;;;;;6279153;22;20024;-83
2022/10/02 01:52:27;;;;;;;11.60;2.45;;;11.70;99.90;;;;;;6279054;22;20019;-84
2022/10/02 01:55:30;;;;;;;13.60;2.33;;;11.70;1.00;;;;;;6279042;22;20020;-84
2022/10/02 01:58:53;;;;;;;12.43;2.45;;;11.80;99.90;;;;;;6256541;22;20027;-83
2022/10/02 02:01:46;;;;;;;13.07;2.55;;;11.80;99.90;;;;;;6278822;22;20027;-85
2022/10/02 02:04:42;;;;;;;12.18;3.10;;;11.80;1.00;;;;;;6277014;22;20031;-85
2022/10/02 02:07:45;;;;;;;9.50;3.38;;;11.80;1.00;;;;;;6277406;22;20415;-84
2022/10/02 02:10:40;;;;;;;;;;;11.80;1.00;;;;;;6254175;22;20094;-86
2022/10/02 02:13:33;;;;;;;12.13;3.05;;;11.70;99.90;;;;;;6276615;22;19922;-85
2022/10/02 02:16:24;;;;;;;15.10;2.80;;;11.70;1.00;;;;;;6279038;22;20023;-86
2022/10/02 02:19:38;;;;;;;12.70;2.42;;;11.80;99.90;;;;;;6275282;22;20112;-83
2022/10/02 02:22:44;;;;;;;16.90;3.13;;;11.80;1.00;;;;;;6256215;22;20023;-82
2022/10/02 02:25:36;;;;;;;12.30;2.60;;;11.70;1.00;;;;;;6278348;22;20028;-82
2022/10/02 02:28:26;;;;;;;19.00;3.67;;;11.70;5.50;;;;;;6275922;22;20030;-82
2022/10/02 02:31:18;;;;;;;20.13;4.53;;;11.70;99.90;;;;;;6276440;22;20042;-84
2022/10/02 02:34:13;;;;;;;12.07;3.22;;;11.60;99.90;;;;;;6277585;22;20031;-84
2022/10/02 02:37:12;;;;;;;14.48;3.20;;;11.60;1.00;;;;;;6277134;22;20019;-83
2022/10/02 02:40:08;;;;;;;14.65;3.35;;;11.60;99.90;;;;;;6275603;22;20106;-85
2022/10/02 02:43:08;;;;;;;12.38;3.03;;;11.60;99.90;;;;;;6275590;22;20368;-86
2022/10/02 02:46:05;;;;;;;17.25;3.20;;;11.50;99.90;;;;;;6276200;22;20028;-84
2022/10/02 02:49:06;;;;;;;21.35;2.88;;;11.50;99.90;;;;;;6276570;22;20030;-83
2022/10/02 02:51:55;;;;;;;19.17;3.42;;;11.60;99.90;;;;;;6278439;22;20019;-86
2022/10/02 02:55:13;;;;;;;23.55;3.25;;;11.60;37.80;;;;;;6276273;22;20046;-84
2022/10/02 02:58:24;;;;;;;14.35;2.65;;;11.60;27.00;;;;;;6278351;22;20420;-85
2022/10/02 03:01:11;;;;;;;8.82;2.80;;;11.60;1.00;;;;;;6275971;22;20024;-85
2022/10/02 03:03:58;;;;;;;11.50;3.20;;;11.60;99.90;;;;;;6277906;22;20396;-85
2022/10/02 03:06:50;;;;;;;12.48;2.50;;;11.60;99.90;;;;;;6253841;22;20061;-86
2022/10/02 03:09:39;;;;;;;18.38;3.42;;;11.60;26.20;;;;;;6278175;22;20420;-86
2022/10/02 03:12:35;;;;;;;9.93;2.97;;;11.70;1.00;;;;;;6278813;22;20027;-86
2022/10/02 03:15:30;;;;;;;20.73;3.28;;;11.70;99.90;;;;;;6275905;22;20426;-84
2022/10/02 03:18:54;;;;;;;13.25;2.97;;;11.70;99.90;;;;;;6276595;22;20024;-86
2022/10/02 03:22:04;;;;;;;11.70;2.72;;;11.70;1.00;;;;;;6276353;22;20028;-86
2022/10/02 03:25:12;;;;;;;11.13;2.85;;;11.70;1.00;;;;;;6277125;22;20132;-85
2022/10/02 03:28:08;;;;;;;12.52;3.10;;;11.70;20.60;;;;;;6255809;22;20311;-87
2022/10/02 03:30:57;;;;;;;10.95;3.03;;;11.70;1.00;;;;;;6278073;22;20020;-85
2022/10/02 03:33:46;;;;;;;14.55;3.70;;;11.70;1.00;;;;;;6276462;22;20172;-85
2022/10/02 03:36:33;;;;;;;12.35;2.97;;;11.70;1.00;;;;;;6256272;22;20020;-85
2022/10/02 03:39:23;;;;;;;17.60;3.40;;;11.70;99.90;;;;;;6255104;22;20027;-86
2022/10/02 03:42:14;;;;;;;9.90;2.83;;;11.70;99.90;;;;;;6278840;22;20028;-84
2022/10/02 03:45:01;;;;;;;15.25;2.90;;;11.70;99.90;;;;;;6266113;22;20023;-85
2022/10/02 03:47:48;;;;;;;15.07;2.88;;;11.70;1.00;;;;;;6289284;22;20047;-85
2022/10/02 03:50:35;;;;;;;9.07;3.38;;;11.70;1.00;;;;;;6288073;22;20054;-86
2022/10/02 03:53:34;;;;;;;8.77;3.15;;;11.70;1.00;;;;;;6291693;22;20024;-85
2022/10/02 03:56:35;;;;;;;8.80;2.55;;;11.70;99.90;;;;;;6291574;22;20020;-86
2022/10/02 03:59:46;;;;;;;11.43;2.83;;;11.70;99.90;;;;;;6265329;22;20069;-85
2022/10/02 04:02:53;;;;;;;10.70;2.63;;;11.70;1.00;;;;;;6283282;22;20078;-85
2022/10/02 04:05:49;;;;;;;12.82;2.28;;;11.70;99.90;;;;;;6284483;22;20027;-87
2022/10/02 04:08:46;;;;;;;8.38;2.60;;;11.80;99.90;;;;;;6265740;22;20035;-86
2022/10/02 04:11:42;;;;;;;8.95;2.53;;;11.80;99.90;;;;;;6283209;22;20034;-86
2022/10/02 04:14:36;;;;;;;12.13;2.22;;;11.80;99.90;;;;;;6277443;22;20024;-88
2022/10/02 04:17:54;;;;;;;14.32;2.78;;;11.70;99.90;;;;;;6278551;22;20372;-84
2022/10/02 04:20:51;;;;;;;13.30;2.38;;;11.70;99.90;;;;;;6277686;22;20023;-86
2022/10/02 04:23:49;;;;;;;15.52;2.58;;;11.70;99.90;;;;;;6258820;22;20038;-86
2022/10/02 04:26:44;;;;;;;13.43;3.00;;;11.70;99.90;;;;;;6278098;22;20099;-87
2022/10/02 04:29:37;;;;;;;14.07;2.67;;;11.60;99.90;;;;;;6258013;22;20024;-86
2022/10/02 04:32:27;;;;;;;12.15;2.60;;;11.60;99.90;;;;;;6278020;22;20023;-83
2022/10/02 04:35:18;;;;;;;10.52;2.45;;;11.70;99.90;;;;;;6257745;22;20019;-87
2022/10/02 04:38:08;;;;;;;15.05;3.22;;;11.60;99.90;;;;;;6278891;22;20416;-86
2022/10/02 04:41:14;;;;;;;10.57;2.50;;;11.60;99.90;;;;;;6278400;22;20026;-85
2022/10/02 04:44:42;;;;;;;12.32;2.45;;;11.60;99.90;;;;;;6277246;22;20034;-86
2022/10/02 04:48:19;;;;;;;10.15;2.75;;;11.60;1.00;;;;;;6157174;23;20032;-85
2022/10/02 04:51:25;;;;;;;15.77;3.08;;;11.50;1.00;;;;;;6277191;22;20050;-84
2022/10/02 04:54:33;;;;;;;16.20;2.53;;;11.60;99.90;;;;;;6277894;22;20019;-84
2022/10/02 04:57:54;;;;;;;16.70;3.13;;;11.60;99.90;;;;;;6276578;22;20019;-85
2022/10/02 05:01:07;;;;;;;13.32;3.65;;;11.60;99.90;;;;;;6280198;22;20023;-86
2022/10/02 05:04:20;;;;;;;12.40;3.00;;;11.60;10.50;;;;;;6276032;22;20023;-86
2022/10/02 05:07:32;;;;;;;15.35;2.88;;;11.60;1.00;;;;;;6257415;22;20024;-84
2022/10/02 05:10:47;;;;;;;16.05;3.00;;;11.60;1.00;;;;;;6278083;22;20023;-87
2022/10/02 05:13:56;;;;;;;12.70;2.75;;;11.70;1.00;;;;;;6277191;22;20019;-86
2022/10/02 05:16:52;;;;;;;12.68;2.95;;;11.70;99.90;;;;;;6279950;22;20094;-86
2022/10/02 05:20:16;;;;;;;8.88;2.80;;;11.60;99.90;;;;;;6277611;22;20082;-85
2022/10/02 05:23:24;;;;;;;14.85;2.90;;;11.60;99.90;;;;;;6277039;22;20034;-85
2022/10/02 05:26:24;;;;;;;12.90;2.63;;;11.70;99.90;;;;;;6275860;22;20453;-87
2022/10/02 05:29:33;;;;;;;15.38;2.65;;;11.70;99.90;;;;;;6276853;22;20035;-85
2022/10/02 05:32:41;;;;;;;10.13;2.72;;;11.70;99.90;;;;;;6277545;22;20094;-87
2022/10/02 05:35:44;;;;;;;11.77;2.88;;;11.70;99.90;;;;;;6276865;22;20434;-85
2022/10/02 05:38:46;;;;;;;13.05;2.83;;;11.70;99.90;;;;;;6255130;22;20029;-84
2022/10/02 05:41:42;;;;;;;20.35;3.72;;;11.70;99.90;;;;;;6253244;22;20027;-85
2022/10/02 05:44:43;;;;;;;16.40;3.30;;;11.70;99.90;;;;;;6278642;22;20034;-86
2022/10/02 05:47:36;;;;;;;15.77;2.45;;;11.70;99.90;;;;;;6276273;22;20083;-86
2022/10/02 05:50:29;;;;;;;11.98;2.97;;;11.70;99.90;;;;;;6236883;22;20075;-87
2022/10/02 05:53:51;;;;;;;13.20;4.15;;;11.70;99.90;;;;;;6276830;22;20019;-84
2022/10/02 05:56:48;;;;;;;16.77;3.25;;;11.60;99.90;;;;;;6256534;22;20020;-85
2022/10/02 05:59:48;;;;;;;13.40;3.35;;;11.60;1.00;;;;;;6279122;22;20330;-85
2022/10/02 06:02:50;;;;;;;19.92;3.22;;;11.60;99.90;;;;;;6275599;22;20034;-85
2022/10/02 06:06:13;;;;;;;16.25;3.30;;;11.60;1.00;;;;;;6276661;22;20070;-85
2022/10/02 06:09:27;;;;;;;11.00;3.78;;;11.60;1.00;;;;;;6255656;22;20102;-85
2022/10/02 06:12:25;;;;;;;;;;;11.50;1.00;;;;;;6279269;22;20473;-86
2022/10/02 06:15:40;;;;;;;15.98;2.80;;;11.50;99.90;;;;;;6255216;22;20219;-86
2022/10/02 06:18:34;;;;;;;11.90;4.03;;;11.50;1.00;;;;;;6278964;22;20031;-85
2022/10/02 06:21:33;;;;;;;17.80;4.82;;;11.50;99.90;;;;;;6277189;22;20030;-86
2022/10/02 06:24:42;;;;;;;12.57;4.43;;;11.50;99.90;;;;;;6256100;22;20030;-86
2022/10/02 06:27:42;;;;;;;18.83;4.80;;;11.50;1.00;;;;;;6278278;22;20265;-85
2022/10/02 06:30:34;;;;;;;19.40;5.00;;;11.50;1.00;;;;;;6279137;22;20427;-85
2022/10/02 06:33:27;;;;;;;15.40;5.25;;;11.50;99.90;;;;;;6277044;22;20031;-84
2022/10/02 06:36:37;;;;;;;19.08;4.35;;;11.60;1.00;;;;;;6277498;22;20024;-85
2022/10/02 06:39:54;;;;;;;15.52;4.65;;;11.60;99.90;;;;;;6242842;22;20055;-86
2022/10/02 06:43:16;;;;;;;22.73;5.15;;;11.60;1.00;;;;;;6276815;22;20020;-86
2022/10/02 06:46:51;;;;;;;18.23;5.68;;;11.60;99.90;;;;;;6277129;22;20098;-86
2022/10/02 06:50:00;;;;;;;19.35;5.30;;;11.70;99.90;;;;;;6278587;22;20031;-85
2022/10/02 06:53:19;;;;;;;14.40;5.70;;;11.70;1.00;;;;;;6277555;22;20020;-86
2022/10/02 06:56:23;;;;;;;12.88;5.05;;;11.80;99.90;;;;;;6275969;22;20028;-86
2022/10/02 06:59:29;;;;;;;9.88;4.53;;;11.90;99.90;;;;;;6278148;22;20113;-86
2022/10/02 07:02:29;;;;;;;16.40;4.43;;;12.00;99.90;;;;;;6276565;22;20039;-85
2022/10/02 07:05:52;;;;;;;11.10;3.95;;;12.10;99.90;;;;;;6278066;22;20461;-85
2022/10/02 07:08:52;;;;;;;12.32;3.17;;;12.20;99.90;;;;;;6277697;22;20326;-86
2022/10/02 07:11:45;;;;;;;15.05;3.10;;;12.20;99.90;;;;;;6278829;22;20020;-86
2022/10/02 07:14:49;;;;;;;15.75;3.28;;;12.20;1.00;;;;;;6277005;22;20039;-86
2022/10/02 07:18:05;;;;;;;12.98;3.30;;;12.20;99.90;;;;;;6257677;22;20304;-84
2022/10/02 07:21:10;;;;;;;11.50;2.80;;;12.20;99.90;;;;;;6280645;22;20027;-86
2022/10/02 07:24:16;;;;;;;16.27;2.70;;;12.30;1.00;;;;;;6258933;22;20038;-86
2022/10/02 07:27:09;;;;;;;14.57;3.08;;;12.40;1.00;;;;;;6278836;22;20102;-87
2022/10/02 07:30:13;;;;;;;9.43;2.63;;;12.50;99.90;;;;;;6276883;22;20031;-87
2022/10/02 07:33:44;;;;;;;12.68;2.55;;;12.50;90.50;;;;;;6278099;22;20055;-86
2022/10/02 07:36:42;;;;;;;13.65;2.45;;;12.50;1.00;;;;;;6279304;22;20020;-87
2022/10/02 07:39:53;;;;;;;9.00;3.22;;;12.60;99.90;;;;;;6279445;22;20102;-87
2022/10/02 07:43:09;;;;;;;10.43;3.40;;;12.70;99.90;;;;;;6277786;22;20441;-86
2022/10/02 07:45:56;;;;;;;13.98;3.83;;;12.70;99.90;;;;;;6277853;22;20038;-87
2022/10/02 07:49:12;;;;;;;9.93;3.30;;;12.70;60.90;;;;;;6278917;22;20031;-84
2022/10/02 07:52:15;;;;;;;10.57;3.28;;;12.80;9.40;;;;;;6279923;22;20024;-86
2022/10/02 07:55:14;;;;;;;9.80;2.70;;;12.80;1.00;;;;;;6257672;22;20020;-85
2022/10/02 07:58:14;;;;;;;10.43;2.58;;;12.80;1.00;;;;;;6279734;22;20320;-87
2022/10/02 08:01:11;;;;;;;10.40;3.10;;;12.90;1.00;;;;;;6259128;22;20024;-86
2022/10/02 08:04:28;;;;;;;11.63;3.63;;;12.90;1.00;;;;;;6279212;22;20428;-86
2022/10/02 08:07:23;;;;;;;12.57;2.90;;;13.00;99.90;;;;;;6281198;22;20030;-85
2022/10/02 08:10:16;;;;;;;6.28;2.10;;;13.20;99.90;;;;;;6278074;22;20035;-87
2022/10/02 08:13:20;;;;;;;8.73;2.22;;;13.40;99.90;;;;;;6278953;22;20020;-87
2022/10/02 08:16:08;;;;;;;7.80;2.10;;;13.60;99.90;;;;;;6257201;22;20034;-87
2022/10/02 08:19:01;;;;;;;4.80;2.00;;;14.00;99.90;;;;;;6257195;22;20024;-86
2022/10/02 08:21:58;;;;;;;10.45;1.90;;;14.10;99.90;;;;;;6280301;22;20023;-88
2022/10/02 08:24:54;;;;;;;4.72;1.95;;;14.30;99.90;;;;;;6257013;22;20103;-87
2022/10/02 08:28:08;;;;;;;9.52;1.85;;;14.40;99.90;;;;;;6277403;22;20019;-87
2022/10/02 08:31:02;;;;;;;7.65;1.90;;;14.40;99.90;;;;;;6278117;22;20019;-88
2022/10/02 08:33:52;;;;;;;11.15;2.55;;;14.50;99.90;;;;;;6278672;22;20050;-86
2022/10/02 08:37:02;;;;;;;5.93;2.03;;;14.60;99.90;;;;;;6281206;22;20028;-88
2022/10/02 08:40:21;;;;;;;5.55;2.00;;;14.80;99.90;;;;;;6280669;22;20051;-88
2022/10/02 08:43:25;;;;;;;7.13;2.65;;;15.10;74.70;;;;;;6277109;22;20028;-87
2022/10/02 08:47:07;;;;;;;8.20;2.13;;;15.40;38.20;;;;;;6281758;22;20039;-84
2022/10/02 08:50:28;;;;;;;8.50;1.95;;;15.80;20.80;;;;;;6281362;22;20070;-85
2022/10/02 08:54:08;;;;;;;4.28;1.77;;;16.00;1.00;;;;;;6278721;22;20023;-85
2022/10/02 08:57:22;;;;;;;9.55;1.90;;;16.50;1.00;;;;;;6157317;23;20026;-87
2022/10/02 09:00:21;;;;;;;4.47;1.73;;;17.00;1.00;;;;;;6280010;22;20024;-85
2022/10/02 09:03:53;;;;;;;3.33;1.42;;;17.10;1.00;;;;;;6287209;22;20023;-88
2022/10/02 09:06:55;;;;;;;4.50;1.40;;;17.20;1.00;;;;;;6288616;22;20030;-86
2022/10/02 09:09:53;;;;;;;5.23;1.83;;;17.20;1.00;;;;;;6285055;22;20019;-87
2022/10/02 09:12:57;;;;;;;3.00;1.73;;;17.60;1.00;;;;;;6265434;22;20317;-85
2022/10/02 09:15:51;;;;;;;5.10;1.55;;;18.10;1.00;;;;;;6274775;22;20030;-86
2022/10/02 09:19:09;;;;;;;5.60;1.55;;;18.20;99.90;;;;;;6264156;22;20019;-86
2022/10/02 09:22:35;;;;;;;4.10;1.00;;;18.70;99.90;;;;;;6281192;22;20034;-86
2022/10/02 09:25:40;;;;;;;3.47;1.40;;;19.00;99.90;;;;;;6260196;22;20038;-86
2022/10/02 09:29:05;;;;;;;2.03;1.20;;;18.90;99.90;;;;;;6279203;22;20027;-86
2022/10/02 09:32:11;;;;;;;3.15;1.10;;;19.00;99.90;;;;;;6255375;22;20024;-85
2022/10/02 09:35:31;;;;;;;1.52;0.85;;;19.30;99.90;;;;;;6278643;22;20038;-87
2022/10/02 09:38:30;;;;;;;1.33;0.40;;;19.60;99.90;;;;;;6278936;22;20023;-85
2022/10/02 09:41:48;;;;;;;0.50;0.32;;;19.10;99.90;;;;;;6276756;22;20023;-86
2022/10/02 09:45:00;;;;;;;0.40;0.40;;;19.60;99.90;;;;;;6277921;22;20148;-85
2022/10/02 09:48:15;;;;;;;1.33;0.57;;;19.40;99.90;;;;;;6278296;22;20031;-86
2022/10/02 09:51:50;;;;;;;0.38;0.28;;;19.20;99.90;;;;;;6278469;22;20019;-85
2022/10/02 09:54:45;;;;;;;0.90;0.45;;;18.90;99.90;;;;;;6155998;23;20121;-84
2022/10/02 09:57:51;;;;;;;0.60;0.40;;;18.40;99.90;;;;;;6155519;23;20044;-83
2022/10/02 10:01:03;;;;;;;3.40;0.40;;;18.30;99.90;;;;;;6276733;22;20103;-85
2022/10/02 10:04:12;;;;;;;0.63;0.40;;;18.10;99.90;;;;;;6280569;22;20386;-85
2022/10/02 10:06:59;;;;;;;1.05;0.50;;;17.90;99.90;;;;;;6277606;22;20027;-88
2022/10/02 10:10:04;;;;;;;1.65;0.30;;;17.90;99.90;;;;;;6278411;22;20031;-85
2022/10/02 10:12:54;;;;;;;0.52;0.38;;;18.60;99.90;;;;;;6255347;22;20030;-87
2022/10/02 10:15:57;;;;;;;0.40;0.32;;;18.90;99.90;;;;;;6278057;22;20407;-84
2022/10/02 10:19:07;;;;;;;0.43;0.43;;;18.60;99.90;;;;;;6278773;22;20027;-85
2022/10/02 10:21:58;;;;;;;1.40;0.70;;;18.40;99.90;;;;;;6279734;22;20136;-86
2022/10/02 10:25:13;;;;;;;1.23;0.60;;;18.50;99.90;;;;;;6254662;22;20061;-88
2022/10/02 10:28:18;;;;;;;1.10;0.50;;;18.70;99.90;;;;;;6257840;22;20028;-86
2022/10/02 10:31:32;;;;;;;0.30;0.30;;;18.80;99.90;;;;;;6277498;22;20486;-88
2022/10/02 10:34:45;;;;;;;0.38;0.20;;;18.90;99.90;;;;;;6281006;22;20094;-87
2022/10/02 10:38:34;;;;;;;0.40;0.40;;;18.60;99.90;;;;;;6277950;22;20399;-87
2022/10/02 10:52:27;;;;;;;0.80;0.30;;;18.20;99.90;;;;;;6251501;22;1397247;-85
2022/10/02 10:55:18;;;;;;;0.60;0.40;;;18.00;99.90;;;;;;6271552;23;20012;-89
2022/10/02 10:58:31;;;;;;;2.10;0.30;;;18.10;99.90;;;;;;6273197;22;20023;-88
2022/10/02 11:01:36;;;;;;;0.20;0.20;;;18.10;99.90;;;;;;6271754;23;20050;-85
2022/10/02 11:04:46;;;;;;;0.22;0.22;;;18.30;99.90;;;;;;6274042;23;20020;-84
2022/10/02 11:07:55;;;;;;;0.30;0.30;;;18.20;99.90;;;;;;6282145;22;20008;-85
2022/10/02 11:10:51;;;;;;;0.50;0.45;;;18.40;99.90;;;;;;6280878;22;20059;-83
2022/10/02 11:14:05;;;;;;;0.30;0.30;;;18.70;99.90;;;;;;6279381;22;20015;-86
2022/10/02 11:17:12;;;;;;;0.30;0.30;;;18.80;99.90;;;;;;6278167;23;20067;-83
2022/10/02 11:20:22;;;;;;;0.20;0.20;;;18.80;99.90;;;;;;6279424;22;20047;-85
2022/10/02 11:23:16;;;;;;;0.63;0.40;;;19.00;99.90;;;;;;6274865;23;20067;-85
2022/10/02 11:26:26;;;;;;;0.45;0.30;;;19.00;99.90;;;;;;6293159;22;20026;-85
2022/10/02 11:29:18;;;;;;;0.50;0.40;;;18.70;99.90;;;;;;6265438;23;20077;-89
2022/10/02 11:32:25;;;;;;;0.55;0.50;;;18.70;99.90;;;;;;6265464;23;20028;-87
2022/10/02 11:35:18;;;;;;;4.03;0.95;;;18.50;99.90;;;;;;6263189;23;20328;-86
2022/10/02 11:38:41;;;;;;;6.93;1.10;;;18.20;99.90;;;;;;6265067;22;20412;-87
2022/10/02 11:41:54;;;;;;;2.67;1.10;;;17.60;99.90;;;;;;6242140;23;20027;-88
2022/10/02 11:45:06;;;;;;;2.78;1.00;;;17.20;99.90;;;;;;6255489;22;20030;-88
2022/10/02 11:47:57;;;;;;;3.03;0.90;;;16.90;99.90;;;;;;6255493;23;20094;-88
2022/10/02 11:50:50;;;;;;;2.05;0.95;;;16.60;1.00;;;;;;6254773;23;20024;-86
2022/10/02 11:53:49;;;;;;;0.95;0.77;;;16.30;1.00;;;;;;6249031;23;20076;-87
2022/10/02 11:57:14;;;;;;;2.97;0.77;;;16.00;1.00;;;;;;6246131;23;20315;-86
2022/10/02 12:00:13;;;;;;;4.82;0.98;;;15.80;1.00;;;;;;6247706;23;20034;-87
2022/10/02 12:03:23;;;;;;;3.13;0.95;;;15.60;1.00;;;;;;6247119;23;20024;-89
2022/10/02 12:06:14;;;;;;;2.10;0.90;;;15.50;57.90;;;;;;6247949;22;20320;-88
2022/10/02 12:09:13;;;;;;;0.80;0.70;;;15.40;99.90;;;;;;6250020;22;20357;-87
2022/10/02 12:12:00;;;;;;;1.58;0.80;;;15.20;99.90;;;;;;6249509;23;20046;-87
2022/10/02 12:15:06;;;;;;;2.60;1.40;;;14.90;99.90;;;;;;6248216;23;20020;-86
2022/10/02 12:18:35;;;;;;;1.15;1.00;;;14.80;99.90;;;;;;6247634;23;20371;-86
2022/10/02 12:28:54;;;;;;;1.85;1.20;;;14.60;99.90;;;;;;6247102;23;20106;-87
2022/10/02 12:32:25;;;;;;;1.30;1.20;;;14.50;1.00;;;;;;6248703;22;20048;-86
2022/10/02 12:35:39;;;;;;;1.17;1.08;;;14.40;1.00;;;;;;6247287;23;20024;-88
2022/10/02 12:38:33;;;;;;;1.13;1.05;;;14.50;24.70;;;;;;6247227;23;20032;-86
2022/10/02 12:41:37;;;;;;;1.40;0.95;;;14.50;56.70;;;;;;6249080;22;20027;-85
2022/10/02 12:44:42;;;;;;;1.10;1.05;;;14.40;66.90;;;;;;6245492;23;20099;-87
2022/10/02 12:47:34;;;;;;;2.13;0.80;;;14.30;99.30;;;;;;6244430;23;20024;-88
2022/10/02 12:50:41;;;;;;;1.30;1.17;;;14.30;99.90;;;;;;6245967;23;20028;-87
2022/10/02 12:53:49;;;;;;;0.70;0.70;;;14.30;99.90;;;;;;6247209;23;20107;-86
2022/10/02 12:56:42;;;;;;;3.47;0.80;;;14.20;60.20;;;;;;6246300;23;20086;-85
2022/10/02 12:59:54;;;;;;;0.93;0.80;;;14.10;36.80;;;;;;6247385;23;20042;-86
2022/10/02 13:03:23;;;;;;;0.80;0.80;;;13.90;1.00;;;;;;6245071;23;20122;-86
2022/10/02 13:06:20;;;;;;;2.83;1.10;;;13.70;95.30;;;;;;6248443;22;20032;-85
2022/10/02 13:09:29;;;;;;;2.17;1.38;;;13.50;99.90;;;;;;6248294;23;20475;-84
2022/10/02 13:12:37;;;;;;;7.20;1.83;;;13.30;1.00;;;;;;6244954;23;20032;-82
2022/10/02 13:15:36;;;;;;;2.30;1.63;;;13.20;99.90;;;;;;6246220;23;20020;-83
2022/10/02 13:18:46;;;;;;;1.60;1.40;;;13.10;99.90;;;;;;6246198;23;20024;-82
2022/10/02 13:21:57;;;;;;;1.73;1.40;;;13.00;99.90;;;;;;6246579;23;20117;-82
2022/10/02 13:24:58;;;;;;;2.38;1.20;;;13.00;99.90;;;;;;6246595;23;20319;-83
2022/10/02 13:27:58;;;;;;;2.90;1.55;;;13.10;99.90;;;;;;6244375;23;20050;-83
2022/10/02 13:31:01;;;;;;;4.57;1.55;;;13.20;1.00;;;;;;6246871;23;20103;-83
2022/10/02 13:34:07;;;;;;;;;;;13.40;99.90;;;;;;6248414;22;20028;-83
2022/10/02 13:37:10;;;;;;;1.20;1.13;;;13.50;1.00;;;;;;6246510;23;20195;-83
2022/10/02 13:40:18;;;;;;;0.82;0.82;;;13.80;99.90;;;;;;6247400;23;20020;-83
2022/10/02 13:43:33;;;;;;;0.80;0.80;;;13.90;28.00;;;;;;6245735;23;20360;-85
2022/10/02 13:46:36;;;;;;;0.80;0.60;;;14.00;1.00;;;;;;6247295;22;20456;-82
2022/10/02 13:50:08;;;;;;;0.50;0.50;;;13.90;19.90;;;;;;6246585;23;20107;-83
2022/10/02 13:53:24;;;;;;;0.77;0.65;;;13.80;99.90;;;;;;6266660;22;20024;-82
2022/10/02 13:56:39;;;;;;;0.40;0.40;;;13.80;99.90;;;;;;6245620;23;20020;-81
2022/10/02 14:00:23;;;;;;;0.80;0.70;;;13.70;1.00;;;;;;6246524;23;20028;-81
2022/10/02 14:03:46;;;;;;;0.82;0.60;;;13.60;99.90;;;;;;6182941;23;20025;-84
2022/10/02 14:06:45;;;;;;;0.75;0.40;;;13.50;43.50;;;;;;6153548;23;20033;-83
2022/10/02 14:09:44;;;;;;;1.75;0.57;;;13.40;99.90;;;;;;6245451;23;20099;-82
2022/10/02 14:12:47;;;;;;;1.45;0.60;;;13.20;99.90;;;;;;6245983;23;20042;-82
2022/10/02 14:15:37;;;;;;;0.82;0.77;;;13.10;1.00;;;;;;6246790;23;20113;-79
2022/10/02 14:18:43;;;;;;;0.90;0.80;;;13.10;99.90;;;;;;6246995;23;20655;-83
2022/10/02 14:21:36;;;;;;;0.50;0.50;;;13.10;99.90;;;;;;6247080;22;20449;-82
2022/10/02 14:28:05;;;;;;;1.48;0.80;;;13.10;99.90;;;;;;6245754;23;20028;-83
2022/10/02 14:31:06;;;;;;;0.85;0.50;;;13.10;1.00;;;;;;6246379;23;20028;-81
2022/10/02 14:34:35;;;;;;;0.70;0.60;;;13.00;99.90;;;;;;6246941;22;20056;-84
2022/10/02 14:37:34;;;;;;;1.67;0.50;;;13.00;99.90;;;;;;6234590;23;20070;-82
2022/10/02 14:40:37;;;;;;;0.80;0.70;;;12.90;1.00;;;;;;6245886;23;20020;-84
2022/10/02 14:43:50;;;;;;;1.55;0.60;;;13.00;99.90;;;;;;6246726;23;20642;-84
2022/10/02 14:46:48;;;;;;;0.55;0.55;;;13.00;99.90;;;;;;6244974;23;20091;-81
2022/10/02 14:49:53;;;;;;;0.50;0.40;;;13.00;1.00;;;;;;6245762;23;20316;-85
2022/10/02 14:52:55;;;;;;;0.98;0.57;;;13.00;99.90;;;;;;6246768;23;20032;-84
2022/10/02 14:55:48;;;;;;;2.30;0.95;;;13.00;29.70;;;;;;6245861;23;20099;-86
2022/10/02 14:58:55;;;;;;;3.88;0.68;;;12.80;1.00;;;;;;6243068;23;20312;-85
2022/10/02 15:01:54;;;;;;;2.03;0.75;;;12.70;82.40;;;;;;6247106;22;20047;-81
2022/10/02 15:04:51;;;;;;;2.55;0.70;;;12.60;66.40;;;;;;6246742;23;20030;-82
2022/10/02 15:07:39;;;;;;;1.95;0.55;;;12.50;99.90;;;;;;6247153;23;20020;-83
2022/10/02 15:10:32;;;;;;;1.25;0.60;;;12.40;99.90;;;;;;6246586;23;20422;-82
2022/10/02 15:13:38;;;;;;;2.15;0.50;;;12.40;1.00;;;;;;6244233;23;20095;-83
2022/10/02 15:19:51;;;;;;;2.03;0.93;;;12.40;99.90;;;;;;6245221;23;20104;-84
2022/10/02 15:22:47;;;;;;;1.20;0.82;;;12.40;99.90;;;;;;6245749;23;20484;-86
2022/10/02 15:25:46;;;;;;;1.85;0.60;;;12.30;1.00;;;;;;6244874;23;20095;-84
2022/10/02 15:28:59;;;;;;;0.52;0.52;;;12.20;1.00;;;;;;6247477;23;20020;-84
2022/10/02 15:32:17;;;;;;;0.73;0.70;;;12.20;1.00;;;;;;6225485;23;20032;-84
2022/10/02 15:35:28;;;;;;;1.17;0.90;;;12.10;1.00;;;;;;6248610;23;20434;-87
2022/10/02 15:38:57;;;;;;;1.42;0.93;;;12.10;1.00;;;;;;6248158;23;20038;-84
2022/10/02 15:42:07;;;;;;;2.33;0.80;;;12.10;25.10;;;;;;6248459;23;20024;-83
2022/10/02 15:45:38;;;;;;;1.45;1.08;;;12.10;48.10;;;;;;6245932;23;20056;-83
2022/10/02 15:48:52;;;;;;;2.55;0.85;;;12.10;66.40;;;;;;6249446;22;20028;-83
2022/10/02 15:51:54;;;;;;;4.22;2.78;;;12.10;76.90;;;;;;6248813;22;20024;-83
2022/10/02 15:55:17;;;;;;;1.92;1.60;;;12.00;89.20;;;;;;6246423;23;20427;-83
2022/10/02 15:58:26;;;;;;;3.40;1.77;;;12.00;93.20;;;;;;6266868;22;20055;-83
2022/10/02 16:01:33;;;;;;;3.13;1.55;;;12.00;96.00;;;;;;6248928;22;20365;-83
2022/10/02 16:04:26;;;;;;;2.30;1.80;;;12.00;99.20;;;;;;6247769;23;20028;-83
2022/10/02 16:07:36;;;;;;;2.80;2.10;;;11.90;99.90;;;;;;6247703;23;20428;-83
2022/10/02 16:10:24;;;;;;;3.38;2.35;;;11.90;99.90;;;;;;6247128;23;20052;-83
2022/10/02 16:13:42;;;;;;;1.83;1.35;;;11.90;99.90;;;;;;6249226;23;20024;-84
2022/10/02 16:17:18;;;;;;;3.15;1.90;;;11.90;99.90;;;;;;6245715;23;20026;-83
2022/10/02 16:20:44;;;;;;;17.70;5.85;;;11.80;99.90;;;;;;6247313;23;20024;-83
2022/10/02 16:23:57;;;;;;;5.45;3.08;;;11.80;99.90;;;;;;6234520;23;20387;-85